Time;durP1;ratioP1;P1;durP2;ratioP2;P2;SDS_P1;SDS_P2;PMS_P1;PMS_P2;Temp;Humidity;BMP_temperature;BMP_pressure;BME280_temperature;BME280_humidity;BME280_pressure;Samples;Min_cycle;Max_cycle;Signal;HPM_P1;HPM_P2
2022/06/26 00:00:41;;;;;;;46.70;43.90;;;;;;;23.85;50.21;101094.81;5054353;28;20068;-83
2022/06/26 00:03:07;;;;;;;46.15;43.65;;;;;;;23.84;50.36;101100.66;5054093;28;20128;-83
2022/06/26 00:05:32;;;;;;;46.25;43.85;;;;;;;23.83;50.31;101110.88;5055209;28;20029;-84
2022/06/26 00:07:57;;;;;;;46.22;43.60;;;;;;;23.80;49.90;101110.72;5055831;28;20029;-82
2022/06/26 00:10:23;;;;;;;49.15;46.55;;;;;;;23.79;49.96;101111.84;5054651;28;20029;-81
2022/06/26 00:12:48;;;;;;;45.90;43.30;;;;;;;23.77;50.42;101111.38;5054823;28;20032;-81
2022/06/26 00:15:14;;;;;;;46.38;43.78;;;;;;;23.73;50.55;101109.25;5054784;28;20571;-81
2022/06/26 00:17:39;;;;;;;44.55;41.85;;;;;;;23.73;50.09;101112.00;5054268;28;20547;-85
2022/06/26 00:20:05;;;;;;;47.78;44.78;;;;;;;23.70;50.66;101115.38;5055018;28;20072;-84
2022/06/26 00:22:31;;;;;;;49.42;46.78;;;;;;;23.69;50.51;101116.53;5055176;28;20033;-84
2022/06/26 00:24:56;;;;;;;45.97;43.38;;;;;;;23.67;50.42;101116.03;5055172;28;20091;-82
2022/06/26 00:27:22;;;;;;;43.97;41.45;;;;;;;23.66;50.69;101116.34;5055183;28;20422;-83
2022/06/26 00:29:47;;;;;;;45.47;43.05;;;;;;;23.64;50.44;101118.63;5054991;28;20029;-82
2022/06/26 00:32:12;;;;;;;47.72;44.95;;;;;;;23.62;50.33;101118.94;5054962;28;20040;-85
2022/06/26 00:34:38;;;;;;;47.60;44.90;;;;;;;23.60;50.98;101115.69;5055322;28;20044;-79
2022/06/26 00:37:03;;;;;;;46.60;43.60;;;;;;;23.59;50.73;101124.31;5054439;28;20064;-86
2022/06/26 00:39:29;;;;;;;43.75;41.35;;;;;;;23.55;50.92;101130.44;5054290;28;20037;-85
2022/06/26 00:41:54;;;;;;;45.92;43.42;;;;;;;23.55;50.59;101132.38;5055241;28;20059;-82
2022/06/26 00:44:22;;;;;;;45.35;42.65;;;;;;;23.54;50.59;101133.53;5054302;28;20454;-85
2022/06/26 00:46:48;;;;;;;46.00;43.40;;;;;;;23.51;50.70;101142.41;5054016;28;20386;-83
2022/06/26 00:49:14;;;;;;;48.25;45.17;;;;;;;23.50;50.82;101135.28;5054036;28;20465;-79
2022/06/26 00:51:44;;;;;;;44.95;42.35;;;;;;;23.48;50.86;101143.06;5054097;28;20033;-84
2022/06/26 00:54:10;;;;;;;46.83;43.97;;;;;;;23.45;50.79;101139.00;5053780;28;20037;-84
2022/06/26 00:56:37;;;;;;;43.25;40.65;;;;;;;23.44;50.53;101145.66;5054157;28;20495;-84
2022/06/26 00:59:03;;;;;;;44.75;42.25;;;;;;;23.43;50.93;101154.25;5054383;28;20033;-86
2022/06/26 01:01:28;;;;;;;46.78;43.88;;;;;;;23.41;51.21;101149.06;5054254;28;20037;-83
2022/06/26 01:03:55;;;;;;;48.15;45.20;;;;;;;23.39;50.67;101153.28;5054348;28;20519;-84
2022/06/26 01:06:20;;;;;;;47.20;44.08;;;;;;;23.39;50.91;101156.03;5054248;28;20037;-82
2022/06/26 01:08:46;;;;;;;46.22;43.33;;;;;;;23.35;50.86;101158.59;5054232;28;20035;-85
2022/06/26 01:11:18;;;;;;;49.03;46.00;;;;;;;23.33;51.27;101156.19;5054022;28;20033;-84
2022/06/26 01:13:54;;;;;;;45.30;42.33;;;;;;;23.30;50.93;101144.97;5054173;28;20036;-85
2022/06/26 01:16:21;;;;;;;50.08;47.08;;;;;;;23.29;50.96;101157.94;5054616;28;20476;-82
2022/06/26 01:18:50;;;;;;;48.20;45.10;;;;;;;23.28;51.33;101161.00;5053672;28;20512;-84
2022/06/26 01:21:18;;;;;;;47.58;44.58;;;;;;;23.25;50.99;101154.19;5054154;28;20112;-84
2022/06/26 01:23:43;;;;;;;43.08;39.88;;;;;;;23.25;51.42;101158.88;5054083;28;20041;-84
2022/06/26 01:26:09;;;;;;;47.65;44.50;;;;;;;23.23;51.18;101159.19;5054022;28;20029;-79
2022/06/26 01:28:34;;;;;;;45.45;42.55;;;;;;;23.22;51.45;101159.53;5053952;28;20397;-83
2022/06/26 01:31:00;;;;;;;47.83;44.53;;;;;;;23.19;50.79;101158.22;5054081;28;20033;-83
2022/06/26 01:33:25;;;;;;;46.95;43.78;;;;;;;23.19;50.83;101154.66;5052991;28;20064;-86
2022/06/26 01:35:51;;;;;;;47.53;44.42;;;;;;;23.18;51.41;101150.25;5054290;28;20064;-86
2022/06/26 01:38:21;;;;;;;46.40;43.33;;;;;;;23.16;50.96;101155.28;5054509;28;20040;-85
2022/06/26 01:40:49;;;;;;;45.40;42.72;;;;;;;23.14;51.29;101161.13;5053832;28;20098;-87
2022/06/26 01:43:18;;;;;;;47.47;44.47;;;;;;;23.13;51.57;101153.16;5053695;28;20037;-85
2022/06/26 01:45:45;;;;;;;46.00;43.10;;;;;;;23.11;51.17;101157.06;5054073;28;20489;-87
2022/06/26 01:48:11;;;;;;;45.67;42.87;;;;;;;23.09;51.54;101156.56;5053809;28;20044;-83
2022/06/26 01:50:37;;;;;;;44.33;41.80;;;;;;;23.08;51.52;101159.63;5054987;28;20297;-85
2022/06/26 01:53:02;;;;;;;43.47;41.05;;;;;;;23.06;51.46;101154.44;5053990;28;20509;-86
2022/06/26 01:55:28;;;;;;;44.83;42.22;;;;;;;23.05;51.17;101155.56;5053657;28;20484;-84
2022/06/26 01:57:54;;;;;;;45.88;42.97;;;;;;;23.04;51.50;101153.94;5053551;28;20056;-84
2022/06/26 02:00:20;;;;;;;44.80;42.00;;;;;;;23.02;51.40;101153.44;5054201;28;20043;-85
2022/06/26 02:02:45;;;;;;;46.63;43.78;;;;;;;23.01;50.99;101134.50;5054058;28;20107;-82
2022/06/26 02:05:10;;;;;;;46.40;43.70;;;;;;;23.00;50.96;101141.91;5054176;28;20033;-84
2022/06/26 02:07:36;;;;;;;44.85;42.15;;;;;;;22.98;50.91;101146.13;5052419;28;20029;-85
2022/06/26 02:15:30;;;;;;;44.10;41.47;;;;;;;22.93;51.39;101129.69;5053235;28;20044;-85
2022/06/26 02:17:55;;;;;;;43.70;41.10;;;;;;;22.90;51.13;101134.69;5053546;28;20037;-80
2022/06/26 02:20:21;;;;;;;43.97;41.38;;;;;;;22.90;51.05;101136.66;5052149;28;20074;-85
2022/06/26 02:22:46;;;;;;;43.45;40.75;;;;;;;22.88;50.96;101134.22;5052593;28;20377;-83
2022/06/26 02:25:12;;;;;;;43.85;41.15;;;;;;;22.87;51.27;101138.09;5054192;28;20056;-83
2022/06/26 02:27:37;;;;;;;44.78;41.97;;;;;;;22.85;51.10;101143.09;5056226;28;20158;-85
2022/06/26 02:30:03;;;;;;;43.83;41.17;;;;;;;22.83;51.43;101145.38;5055096;28;20051;-83
2022/06/26 02:32:28;;;;;;;44.72;42.00;;;;;;;22.83;51.22;101134.38;5054225;28;20036;-84
2022/06/26 02:34:53;;;;;;;44.83;41.92;;;;;;;22.80;51.00;101140.47;5053937;28;20040;-85
2022/06/26 02:37:19;;;;;;;44.35;41.70;;;;;;;22.79;51.19;101144.38;5052405;28;20029;-85
2022/06/26 02:39:44;;;;;;;41.97;39.33;;;;;;;22.77;51.00;101146.63;5053038;28;20033;-83
2022/06/26 02:42:10;;;;;;;43.47;40.42;;;;;;;22.75;51.08;101146.13;5053421;28;20033;-82
2022/06/26 02:44:36;;;;;;;42.67;39.88;;;;;;;22.74;51.32;101146.47;5054592;28;20120;-83
2022/06/26 02:47:01;;;;;;;41.42;38.63;;;;;;;22.73;51.45;101155.84;5055215;28;20033;-84
2022/06/26 02:49:27;;;;;;;43.35;40.55;;;;;;;22.72;51.14;101159.72;5054649;28;20112;-83
2022/06/26 02:51:52;;;;;;;40.15;37.83;;;;;;;22.70;51.40;101160.03;5053374;28;20481;-84
2022/06/26 02:54:18;;;;;;;42.63;39.85;;;;;;;22.68;51.29;101167.81;5052874;28;20036;-80
2022/06/26 02:56:43;;;;;;;40.67;38.28;;;;;;;22.67;51.53;101166.16;5052946;28;20048;-84
2022/06/26 02:59:08;;;;;;;39.30;37.10;;;;;;;22.66;51.41;101175.56;5053178;28;20057;-85
2022/06/26 03:01:34;;;;;;;41.03;38.63;;;;;;;22.64;51.00;101169.56;5055838;28;20025;-85
2022/06/26 03:03:59;;;;;;;40.28;37.33;;;;;;;22.62;51.49;101166.28;5057357;28;20029;-84
2022/06/26 03:06:24;;;;;;;40.58;38.28;;;;;;;22.61;51.24;101167.44;5056436;28;20040;-85
2022/06/26 03:08:50;;;;;;;41.90;39.50;;;;;;;22.58;50.90;101168.88;5056497;28;20389;-83
2022/06/26 03:11:16;;;;;;;40.97;38.33;;;;;;;22.56;51.28;101173.06;5056599;28;20037;-84
2022/06/26 03:13:41;;;;;;;39.88;37.28;;;;;;;22.54;51.42;101167.88;5056825;28;20100;-85
2022/06/26 03:16:07;;;;;;;39.58;37.38;;;;;;;22.53;50.95;101169.00;5056589;28;20120;-85
2022/06/26 03:18:32;;;;;;;40.95;38.58;;;;;;;22.52;50.81;101174.81;5056843;28;20453;-84
2022/06/26 03:20:58;;;;;;;39.67;37.33;;;;;;;22.50;51.08;101183.38;5055276;28;20101;-86
2022/06/26 03:24:00;;;;;;;42.70;40.15;;;;;;;22.47;51.29;101175.75;5055051;28;20060;-86
2022/06/26 03:26:12;;;;;;;38.28;36.17;;;;;;;22.45;50.77;101186.25;5056138;28;20049;-82
2022/06/26 03:28:37;;;;;;;38.10;35.88;;;;;;;22.43;50.83;101192.09;5056921;28;20464;-80
2022/06/26 03:31:03;;;;;;;38.65;36.35;;;;;;;22.41;51.19;101194.34;5056515;28;20033;-83
2022/06/26 03:33:28;;;;;;;40.88;38.25;;;;;;;22.40;51.29;101202.88;5056040;28;20107;-83
2022/06/26 03:35:53;;;;;;;39.85;37.55;;;;;;;22.38;51.19;101216.16;5056618;28;20025;-88
2022/06/26 03:38:19;;;;;;;40.90;38.63;;;;;;;22.37;51.27;101217.28;5057214;28;20040;-85
2022/06/26 03:40:44;;;;;;;37.08;34.90;;;;;;;22.34;50.84;101210.47;5055367;28;20056;-84
2022/06/26 03:43:11;;;;;;;39.20;36.80;;;;;;;22.34;51.17;101212.41;5058491;28;20120;-84
2022/06/26 03:45:38;;;;;;;39.15;36.90;;;;;;;22.32;51.29;101223.72;5058698;28;20384;-82
2022/06/26 03:48:04;;;;;;;39.42;37.17;;;;;;;22.30;51.18;101216.88;5057932;28;20536;-85
2022/06/26 03:50:29;;;;;;;39.08;36.78;;;;;;;22.28;51.17;101210.91;5056886;28;20052;-85
2022/06/26 03:52:55;;;;;;;37.78;35.63;;;;;;;22.26;50.77;101202.94;5055846;28;20036;-85
2022/06/26 03:55:20;;;;;;;40.55;38.13;;;;;;;22.24;51.25;101207.94;5056420;28;20037;-86
2022/06/26 03:57:46;;;;;;;38.92;36.65;;;;;;;22.23;51.31;101203.56;5055866;28;20037;-86
2022/06/26 04:00:12;;;;;;;38.63;36.22;;;;;;;22.21;51.16;101209.38;5056119;28;20067;-85
2022/06/26 04:02:37;;;;;;;39.20;37.10;;;;;;;22.20;50.99;101220.69;5057003;28;20040;-86
2022/06/26 04:05:04;;;;;;;38.63;36.22;;;;;;;22.17;50.83;101216.56;5056515;28;20083;-85
2022/06/26 04:07:30;;;;;;;39.42;37.33;;;;;;;22.17;51.31;101215.78;5056763;28;20029;-84
2022/06/26 04:09:55;;;;;;;39.22;37.13;;;;;;;22.13;51.17;101214.78;5055795;28;20112;-83
2022/06/26 04:12:21;;;;;;;39.13;36.97;;;;;;;22.12;50.91;101221.38;5055188;28;20536;-84
2022/06/26 04:14:47;;;;;;;39.22;36.75;;;;;;;22.10;50.87;101221.72;5055715;28;20079;-85
2022/06/26 04:17:13;;;;;;;38.67;36.47;;;;;;;22.09;50.79;101222.00;5037979;28;20037;-85
2022/06/26 04:19:39;;;;;;;38.72;36.53;;;;;;;22.07;51.29;101216.00;5055547;28;20112;-85
2022/06/26 04:22:04;;;;;;;38.88;36.72;;;;;;;22.06;50.76;101220.69;5055335;28;20043;-85
2022/06/26 04:24:30;;;;;;;39.95;37.63;;;;;;;22.03;51.20;101216.63;5054190;28;20489;-86
2022/06/26 04:26:56;;;;;;;39.10;36.33;;;;;;;22.02;50.98;101222.41;5055694;28;20098;-86
2022/06/26 04:29:21;;;;;;;36.92;34.78;;;;;;;22.00;50.75;101232.94;5055661;28;20408;-84
2022/06/26 04:31:47;;;;;;;36.67;34.58;;;;;;;21.97;50.63;101239.03;5055197;28;20047;-85
2022/06/26 04:34:12;;;;;;;37.97;35.92;;;;;;;21.96;51.12;101240.97;5055849;28;20469;-85
2022/06/26 04:36:38;;;;;;;36.65;34.65;;;;;;;21.93;50.89;101238.84;5054781;28;20374;-84
2022/06/26 04:39:03;;;;;;;39.05;36.95;;;;;;;21.92;50.60;101241.91;5056083;28;20061;-83
2022/06/26 04:41:34;;;;;;;37.90;35.80;;;;;;;21.91;51.02;101251.28;5055819;28;20029;-83
2022/06/26 04:44:04;;;;;;;37.95;35.75;;;;;;;21.88;51.08;101258.22;5055225;28;20041;-84
2022/06/26 04:46:29;;;;;;;37.95;35.90;;;;;;;21.87;51.00;101259.31;5055561;28;20032;-84
2022/06/26 04:48:55;;;;;;;36.15;34.05;;;;;;;21.87;50.95;101261.25;5054891;28;20029;-84
2022/06/26 04:51:20;;;;;;;36.47;34.15;;;;;;;21.85;50.57;101267.06;5053588;28;20548;-84
2022/06/26 04:53:46;;;;;;;36.55;34.40;;;;;;;21.83;50.48;101266.56;5054651;28;20032;-83
2022/06/26 04:56:11;;;;;;;37.72;35.63;;;;;;;21.81;51.03;101269.59;5054573;28;20488;-86
2022/06/26 04:58:36;;;;;;;36.47;34.55;;;;;;;21.80;50.72;101267.19;5055305;28;20390;-85
2022/06/26 05:01:02;;;;;;;34.67;32.78;;;;;;;21.78;50.83;101256.47;5055005;28;20024;-83
2022/06/26 05:03:28;;;;;;;37.25;34.78;;;;;;;21.77;51.07;101254.03;5055553;28;20094;-84
2022/06/26 05:05:53;;;;;;;37.83;35.58;;;;;;;21.76;50.56;101255.97;5054435;28;20072;-84
2022/06/26 05:08:19;;;;;;;35.33;33.33;;;;;;;21.73;50.95;101262.06;5054718;28;20412;-85
2022/06/26 05:10:44;;;;;;;35.75;33.85;;;;;;;21.73;50.35;101266.78;5054265;28;20033;-85
2022/06/26 05:13:10;;;;;;;36.88;34.65;;;;;;;21.72;50.77;101276.13;5054177;28;20032;-83
2022/06/26 05:15:35;;;;;;;37.55;35.30;;;;;;;21.71;50.84;101274.50;5054593;28;20036;-84
2022/06/26 05:18:01;;;;;;;35.67;33.67;;;;;;;21.70;50.54;101272.88;5054591;28;20025;-83
2022/06/26 05:20:26;;;;;;;35.85;33.75;;;;;;;21.68;51.04;101273.19;5054496;28;20044;-82
2022/06/26 05:22:51;;;;;;;35.20;33.30;;;;;;;21.68;51.07;101273.19;5053672;28;20047;-83
2022/06/26 05:25:17;;;;;;;35.47;33.58;;;;;;;21.67;50.74;101271.56;5054224;28;20060;-83
2022/06/26 05:27:42;;;;;;;36.20;34.10;;;;;;;21.66;51.20;101272.66;5054139;28;20343;-84
2022/06/26 05:30:08;;;;;;;35.88;34.03;;;;;;;21.67;50.83;101270.72;5052945;28;20117;-82
2022/06/26 05:32:33;;;;;;;38.35;36.17;;;;;;;21.67;51.06;101276.22;5053777;28;20033;-83
2022/06/26 05:35:00;;;;;;;35.95;33.50;;;;;;;21.67;50.85;101284.47;5053825;28;20041;-84
2022/06/26 05:37:25;;;;;;;37.13;34.58;;;;;;;21.65;50.92;101284.78;5054166;28;20125;-83
2022/06/26 05:39:50;;;;;;;37.00;34.83;;;;;;;21.66;50.83;101283.66;5052925;28;20055;-83
2022/06/26 05:42:16;;;;;;;35.40;33.40;;;;;;;21.67;51.19;101284.47;5053404;28;20033;-83
2022/06/26 05:44:41;;;;;;;38.30;36.20;;;;;;;21.65;50.83;101301.28;5052718;28;20536;-83
2022/06/26 05:47:06;;;;;;;36.45;34.35;;;;;;;21.64;51.09;101312.56;5054162;28;20101;-83
2022/06/26 05:49:32;;;;;;;38.55;36.13;;;;;;;21.65;51.06;101309.53;5054136;28;20048;-84
2022/06/26 05:51:57;;;;;;;37.78;35.55;;;;;;;21.66;51.39;101319.41;5054258;28;20088;-84
2022/06/26 05:54:23;;;;;;;36.65;34.55;;;;;;;21.66;51.29;101318.59;5053115;28;20073;-81
2022/06/26 05:56:48;;;;;;;35.72;33.78;;;;;;;21.66;51.02;101324.09;5054216;28;20029;-83
2022/06/26 05:59:13;;;;;;;38.33;36.22;;;;;;;21.67;50.87;101317.47;5055336;28;20047;-84
2022/06/26 06:01:39;;;;;;;36.65;34.55;;;;;;;21.67;51.06;101321.06;5054474;28;20484;-85
2022/06/26 06:04:05;;;;;;;36.35;34.03;;;;;;;21.67;50.87;101329.28;5054503;28;20040;-83
2022/06/26 06:06:31;;;;;;;37.17;34.90;;;;;;;21.67;51.17;101331.22;5054597;28;20044;-79
2022/06/26 06:08:56;;;;;;;36.10;34.20;;;;;;;21.68;51.08;101330.91;5055064;28;20037;-84
2022/06/26 06:11:22;;;;;;;35.35;33.45;;;;;;;21.68;50.74;101322.66;5054389;28;20065;-83
2022/06/26 06:13:47;;;;;;;35.60;33.70;;;;;;;21.69;51.23;101332.53;5054808;28;20462;-83
2022/06/26 06:16:12;;;;;;;35.53;33.65;;;;;;;21.70;51.12;101330.63;5055714;28;20098;-76
2022/06/26 06:18:38;;;;;;;37.88;35.42;;;;;;;21.71;50.83;101327.56;5056713;28;20440;-85
2022/06/26 06:21:03;;;;;;;38.70;36.28;;;;;;;21.72;50.97;101331.09;5055581;28;20033;-84
2022/06/26 06:23:29;;;;;;;36.47;34.38;;;;;;;21.73;51.01;101333.56;5055400;28;20049;-81
2022/06/26 06:25:54;;;;;;;38.58;36.17;;;;;;;21.75;51.33;101341.53;5055649;28;20033;-84
2022/06/26 06:28:20;;;;;;;38.45;36.05;;;;;;;21.75;50.75;101352.53;5055046;28;20063;-84
2022/06/26 06:30:46;;;;;;;37.83;35.63;;;;;;;21.76;50.89;101341.22;5055544;28;20100;-84
2022/06/26 06:33:11;;;;;;;38.88;36.15;;;;;;;21.77;50.87;101362.09;5055566;28;20068;-84
2022/06/26 06:35:36;;;;;;;37.30;35.17;;;;;;;21.78;51.25;101366.47;5058867;28;20529;-84
2022/06/26 06:38:02;;;;;;;36.95;34.75;;;;;;;21.79;50.92;101357.09;5059127;28;20540;-84
2022/06/26 06:40:27;;;;;;;37.33;35.03;;;;;;;21.80;51.06;101352.44;5058555;28;20048;-82
2022/06/26 06:42:53;;;;;;;37.63;35.60;;;;;;;21.81;51.16;101365.03;5057523;28;20036;-82
2022/06/26 06:45:18;;;;;;;37.97;35.78;;;;;;;21.80;50.64;101368.94;5057528;28;20136;-83
2022/06/26 06:47:44;;;;;;;37.60;35.20;;;;;;;21.81;51.02;101368.59;5057164;28;20033;-84
2022/06/26 06:50:09;;;;;;;37.53;35.47;;;;;;;21.81;50.70;101390.59;5056248;28;20370;-82
2022/06/26 06:52:35;;;;;;;39.88;37.25;;;;;;;21.81;51.05;101404.34;5057703;28;20036;-84
2022/06/26 06:55:01;;;;;;;38.33;36.00;;;;;;;21.83;51.17;101426.88;5057488;28;20040;-81
2022/06/26 06:57:26;;;;;;;38.97;36.53;;;;;;;21.84;51.09;101405.69;5040086;28;20079;-81
2022/06/26 06:59:52;;;;;;;38.00;35.83;;;;;;;21.85;50.97;101409.25;5057806;28;20477;-84
2022/06/26 07:02:17;;;;;;;38.15;35.58;;;;;;;21.85;50.81;101401.84;5057166;28;20107;-84
2022/06/26 07:04:42;;;;;;;38.90;36.55;;;;;;;21.86;51.20;101403.47;5057613;28;20377;-84
2022/06/26 07:07:08;;;;;;;35.90;34.03;;;;;;;21.86;50.92;101405.41;5057497;28;20397;-85
2022/06/26 07:09:33;;;;;;;37.28;35.17;;;;;;;21.87;51.14;101404.25;5057703;28;20037;-82
2022/06/26 07:11:59;;;;;;;37.88;35.47;;;;;;;21.87;50.71;101405.06;5057032;28;20044;-83
2022/06/26 07:14:24;;;;;;;36.20;34.20;;;;;;;21.88;50.87;101409.47;5057035;28;20052;-83
2022/06/26 07:16:50;;;;;;;39.47;36.95;;;;;;;21.89;50.83;101419.34;5056715;28;20448;-84
2022/06/26 07:19:16;;;;;;;36.55;34.55;;;;;;;21.90;51.11;101422.91;5057562;28;20449;-83
2022/06/26 07:21:43;;;;;;;40.90;38.33;;;;;;;21.91;50.87;101432.81;5056247;28;20473;-83
2022/06/26 07:24:10;;;;;;;38.45;35.88;;;;;;;21.91;51.09;101425.38;5057163;28;20049;-84
2022/06/26 07:26:36;;;;;;;37.63;35.58;;;;;;;21.92;50.89;101432.50;5056405;28;20028;-83
2022/06/26 07:29:02;;;;;;;39.70;37.03;;;;;;;21.93;50.59;101425.88;5057003;28;20037;-83
2022/06/26 07:31:27;;;;;;;38.60;36.03;;;;;;;21.95;50.67;101422.84;5059989;28;20025;-82
2022/06/26 07:36:37;;;;;;;39.53;37.35;;;;;;;21.96;50.61;101435.47;5063307;28;20426;-87
2022/06/26 07:39:03;;;;;;;37.97;36.00;;;;;;;21.96;51.04;101444.53;5064819;28;20041;-83
2022/06/26 07:41:28;;;;;;;39.30;36.83;;;;;;;21.97;50.62;101454.44;5065241;28;20044;-83
2022/06/26 07:43:54;;;;;;;39.05;36.47;;;;;;;21.98;50.48;101455.25;5070869;28;20085;-83
2022/06/26 07:46:19;;;;;;;38.97;36.78;;;;;;;22.00;50.77;101447.50;5064918;28;20033;-82
2022/06/26 07:48:45;;;;;;;39.28;37.05;;;;;;;22.01;51.02;101447.19;5065764;28;20040;-82
2022/06/26 07:51:10;;;;;;;38.72;36.38;;;;;;;22.03;51.04;101455.16;5063708;28;20061;-83
2022/06/26 07:53:37;;;;;;;38.25;36.13;;;;;;;22.03;50.72;101446.91;5066227;28;20029;-77
2022/06/26 07:56:03;;;;;;;39.10;36.72;;;;;;;22.04;50.90;101448.50;5062387;28;20033;-83
2022/06/26 07:58:29;;;;;;;38.40;36.20;;;;;;;22.06;50.76;101450.97;5060987;28;20029;-82
2022/06/26 08:00:54;;;;;;;41.75;38.95;;;;;;;22.07;50.71;101455.34;5062746;28;20117;-83
2022/06/26 08:03:19;;;;;;;40.05;37.72;;;;;;;22.07;50.96;101444.34;5062323;28;20536;-82
2022/06/26 08:05:46;;;;;;;40.28;37.85;;;;;;;22.09;50.48;101455.88;5061540;28;20044;-80
2022/06/26 08:08:12;;;;;;;37.50;34.80;;;;;;;22.09;50.97;101455.88;5059906;28;20036;-81
2022/06/26 08:10:38;;;;;;;39.40;37.00;;;;;;;22.10;50.78;101455.56;5060154;28;20041;-77
2022/06/26 08:13:05;;;;;;;37.80;35.60;;;;;;;22.11;50.79;101465.44;5061208;28;20579;-82
2022/06/26 08:15:30;;;;;;;38.53;36.22;;;;;;;22.11;50.53;101465.44;5063081;28;20037;-82
2022/06/26 08:17:56;;;;;;;39.88;37.53;;;;;;;22.12;50.43;101478.06;5065142;28;20056;-82
2022/06/26 08:20:22;;;;;;;37.20;35.00;;;;;;;22.12;50.56;101464.31;5061576;28;20037;-82
2022/06/26 08:22:47;;;;;;;40.97;38.67;;;;;;;22.14;50.76;101455.78;5058462;28;20025;-82
2022/06/26 08:25:13;;;;;;;38.80;36.60;;;;;;;22.15;50.63;101457.38;5058069;28;20452;-84
2022/06/26 08:27:38;;;;;;;38.35;36.15;;;;;;;22.16;50.80;101459.84;5056990;28;20036;-80
2022/06/26 08:30:05;;;;;;;39.28;36.78;;;;;;;22.16;50.35;101451.59;5056140;28;20091;-79
2022/06/26 08:32:31;;;;;;;38.42;36.13;;;;;;;22.18;50.72;101456.81;5056266;28;20044;-79
2022/06/26 08:34:56;;;;;;;40.58;38.22;;;;;;;22.18;50.76;101449.38;5055077;28;20108;-80
2022/06/26 08:37:22;;;;;;;37.55;35.47;;;;;;;22.19;50.27;101442.75;5056016;28;20078;-81
2022/06/26 08:39:47;;;;;;;40.42;37.90;;;;;;;22.20;50.23;101460.06;5054749;28;20033;-81
2022/06/26 08:42:13;;;;;;;38.03;35.75;;;;;;;22.20;50.66;101455.41;5054428;28;20040;-81
2022/06/26 08:44:43;;;;;;;39.92;37.72;;;;;;;22.23;50.71;101462.25;5056055;28;20163;-81
2022/06/26 08:47:13;;;;;;;37.28;34.70;;;;;;;22.23;50.26;101459.50;5060136;28;20029;-77
2022/06/26 08:49:41;;;;;;;39.05;36.65;;;;;;;22.24;50.40;101463.88;5057638;28;20056;-82
2022/06/26 08:52:09;;;;;;;36.47;34.47;;;;;;;22.25;50.11;101465.47;5060282;28;20033;-82
2022/06/26 08:54:35;;;;;;;39.35;36.97;;;;;;;22.26;50.19;101461.63;5059310;28;20527;-80
2022/06/26 08:57:01;;;;;;;37.85;35.85;;;;;;;22.27;50.25;101457.75;5056668;28;20041;-80
2022/06/26 08:59:27;;;;;;;35.85;33.63;;;;;;;22.27;50.71;101446.75;5058210;28;20033;-80
2022/06/26 09:01:53;;;;;;;39.42;37.28;;;;;;;22.28;50.61;101456.66;5055240;28;20086;-80
2022/06/26 09:04:18;;;;;;;37.53;35.58;;;;;;;22.29;50.60;101466.53;5055916;28;20449;-78
2022/06/26 09:06:44;;;;;;;37.08;34.97;;;;;;;22.30;50.27;101473.66;5053909;28;20481;-78
2022/06/26 09:09:13;;;;;;;37.13;35.03;;;;;;;22.31;50.60;101478.03;5057195;28;20029;-81
2022/06/26 09:11:38;;;;;;;39.13;36.78;;;;;;;22.32;50.17;101468.66;5054543;28;20036;-80
2022/06/26 09:14:04;;;;;;;38.35;36.38;;;;;;;22.32;50.42;101473.34;5055414;28;20058;-79
2022/06/26 09:16:31;;;;;;;37.88;35.88;;;;;;;22.34;50.21;101465.63;5053106;28;20045;-79
2022/06/26 09:19:07;;;;;;;39.83;37.53;;;;;;;22.34;50.26;101463.66;5054303;28;20159;-79
2022/06/26 09:21:32;;;;;;;38.42;36.30;;;;;;;22.34;50.34;101469.16;5055415;28;20032;-78
2022/06/26 09:23:58;;;;;;;39.30;36.85;;;;;;;22.36;50.23;101474.38;5053714;28;20452;-72
2022/06/26 09:26:23;;;;;;;37.58;35.63;;;;;;;22.37;50.60;101479.56;5054906;28;20072;-80
2022/06/26 09:28:50;;;;;;;37.75;35.65;;;;;;;22.38;50.60;101469.41;5054654;28;20041;-81
2022/06/26 09:31:20;;;;;;;36.63;34.75;;;;;;;22.39;50.24;101463.56;5055592;28;20446;-81
2022/06/26 09:33:46;;;;;;;38.53;36.33;;;;;;;22.39;50.14;101465.50;5055455;28;20159;-76
2022/06/26 09:36:17;;;;;;;38.38;36.30;;;;;;;22.40;50.63;101467.97;5055116;28;20037;-83
2022/06/26 09:38:50;;;;;;;37.90;35.70;;;;;;;22.41;50.49;101477.03;5054982;28;20037;-81
2022/06/26 09:41:17;;;;;;;38.78;36.78;;;;;;;22.42;50.18;101473.97;5053671;28;20036;-80
2022/06/26 09:43:43;;;;;;;40.55;38.42;;;;;;;22.42;50.19;101465.72;5054598;28;20029;-82
2022/06/26 09:46:13;;;;;;;41.10;38.90;;;;;;;22.44;50.19;101468.16;5054453;28;20112;-82
2022/06/26 09:48:40;;;;;;;38.65;36.55;;;;;;;22.45;50.67;101470.63;5054766;28;20024;-81
2022/06/26 09:51:10;;;;;;;37.75;35.85;;;;;;;22.46;50.59;101463.97;5054182;28;20539;-81
2022/06/26 09:53:37;;;;;;;38.78;36.80;;;;;;;22.47;50.35;101464.78;5055106;28;20027;-82
2022/06/26 09:56:03;;;;;;;40.25;38.15;;;;;;;22.49;50.61;101464.50;5054957;28;20029;-81
2022/06/26 09:58:29;;;;;;;41.22;38.88;;;;;;;22.50;50.10;101479.88;5054563;28;20043;-80
2022/06/26 10:06:30;;;;;;;38.42;36.33;;;;;;;22.53;49.96;101487.53;5058662;28;20095;-78
2022/06/26 10:08:56;;;;;;;39.25;36.85;;;;;;;22.54;50.15;101481.72;5058062;28;20457;-80
2022/06/26 10:11:27;;;;;;;41.33;39.22;;;;;;;22.56;50.13;101481.44;5059025;28;20075;-79
2022/06/26 10:14:11;;;;;;;38.78;36.83;;;;;;;22.57;50.59;101483.88;5060974;28;20048;-83
2022/06/26 10:16:45;;;;;;;49.88;45.83;;;;;;;22.59;50.53;101491.84;5059063;28;20066;-81
2022/06/26 10:19:32;;;;;;;36.05;34.15;;;;;;;22.60;50.55;101501.72;5059704;28;20120;-82
2022/06/26 10:21:58;;;;;;;36.53;34.53;;;;;;;22.60;50.48;101496.19;5063260;28;20048;-86
2022/06/26 10:24:24;;;;;;;38.75;36.53;;;;;;;22.62;50.12;101494.78;5043785;28;20141;-84
2022/06/26 10:26:58;;;;;;;39.03;36.88;;;;;;;22.65;50.27;101496.94;5060239;28;20065;-73
2022/06/26 10:29:37;;;;;;;37.17;35.28;;;;;;;22.66;50.64;101495.81;5059860;28;20079;-81
2022/06/26 10:32:04;;;;;;;37.50;35.50;;;;;;;22.67;50.30;101502.13;5060818;28;20111;-82
2022/06/26 10:34:31;;;;;;;37.85;35.88;;;;;;;22.68;50.18;101493.56;5060194;28;20459;-84
2022/06/26 10:37:15;;;;;;;37.15;35.25;;;;;;;22.72;50.20;101501.22;5060454;28;20040;-83
2022/06/26 10:39:46;;;;;;;37.63;35.75;;;;;;;22.73;50.41;101498.16;5061263;28;20033;-80
2022/06/26 10:45:14;;;;;;;40.60;38.30;;;;;;;22.78;50.21;101497.22;5057387;28;20075;-70
2022/06/26 10:47:46;;;;;;;39.92;37.53;;;;;;;22.84;50.47;101493.25;5056264;28;20051;-70
2022/06/26 10:50:23;;;;;;;36.70;34.70;;;;;;;22.89;50.15;101498.66;5057251;28;20121;-81
2022/06/26 10:52:49;;;;;;;40.22;37.95;;;;;;;22.90;50.61;101487.31;5060531;28;20033;-82
2022/06/26 10:55:14;;;;;;;37.92;35.78;;;;;;;22.93;50.64;101488.66;5060461;28;20127;-76
2022/06/26 10:57:40;;;;;;;41.67;39.45;;;;;;;22.97;50.52;101497.13;5060733;28;20033;-85
2022/06/26 11:00:16;;;;;;;40.00;37.95;;;;;;;23.00;50.60;101500.09;5065890;28;20045;-87
2022/06/26 11:02:45;;;;;;;38.22;36.22;;;;;;;23.03;50.09;101499.50;5065267;28;20029;-83
2022/06/26 11:05:11;;;;;;;38.03;36.08;;;;;;;23.06;50.64;101495.31;5056993;28;20029;-78
2022/06/26 11:07:49;;;;;;;38.42;35.95;;;;;;;23.09;50.42;101498.25;5059055;28;20096;-87
2022/06/26 11:10:23;;;;;;;38.90;36.90;;;;;;;23.13;50.34;101494.88;5062997;28;20476;-73
2022/06/26 11:12:51;;;;;;;41.85;39.30;;;;;;;23.15;50.42;101496.19;5056366;28;20552;-73
2022/06/26 11:15:33;;;;;;;38.50;36.70;;;;;;;23.18;49.92;101492.81;5056376;28;20069;-74
2022/06/26 11:18:02;;;;;;;39.67;37.58;;;;;;;23.21;49.85;101483.09;5055620;28;20134;-72
2022/06/26 11:20:47;;;;;;;41.55;39.35;;;;;;;23.25;49.92;101487.69;5055531;28;20454;-74
2022/06/26 11:23:33;;;;;;;40.22;38.13;;;;;;;23.28;49.81;101478.81;5057928;28;20021;-75